sensor_id;sensor_type;location;lat;lon;timestamp;temperature;humidity
52575;DHT22;38468;48.114;-1.684;2023-06-22T00:00:09;20.80;69.60
52575;DHT22;38468;48.114;-1.684;2023-06-22T00:02:12;20.80;69.60
52575;DHT22;38468;48.114;-1.684;2023-06-22T00:04:12;20.80;69.70
52575;DHT22;38468;48.114;-1.684;2023-06-22T00:06:16;20.80;69.90
52575;DHT22;38468;48.114;-1.684;2023-06-22T00:08:18;20.70;69.80
52575;DHT22;38468;48.114;-1.684;2023-06-22T00:10:19;20.70;69.90
52575;DHT22;38468;48.114;-1.684;2023-06-22T00:12:19;20.70;70.30
52575;DHT22;38468;48.114;-1.684;2023-06-22T00:14:20;20.70;70.40
52575;DHT22;38468;48.114;-1.684;2023-06-22T00:16:20;20.70;70.50
52575;DHT22;38468;48.114;-1.684;2023-06-22T00:18:21;20.70;70.50
52575;DHT22;38468;48.114;-1.684;2023-06-22T00:20:22;20.60;70.60
52575;DHT22;38468;48.114;-1.684;2023-06-22T00:22:23;20.60;70.80
52575;DHT22;38468;48.114;-1.684;2023-06-22T00:24:28;20.60;70.90
52575;DHT22;38468;48.114;-1.684;2023-06-22T00:26:29;20.60;70.90
52575;DHT22;38468;48.114;-1.684;2023-06-22T00:28:30;20.50;71.00
52575;DHT22;38468;48.114;-1.684;2023-06-22T00:30:32;20.60;70.90
52575;DHT22;38468;48.114;-1.684;2023-06-22T00:32:32;20.60;71.10
52575;DHT22;38468;48.114;-1.684;2023-06-22T00:34:33;20.60;71.10
52575;DHT22;38468;48.114;-1.684;2023-06-22T00:36:34;20.50;71.20
52575;DHT22;38468;48.114;-1.684;2023-06-22T00:38:34;20.50;71.20
52575;DHT22;38468;48.114;-1.684;2023-06-22T00:40:35;20.50;71.20
52575;DHT22;38468;48.114;-1.684;2023-06-22T00:42:36;20.50;71.30
52575;DHT22;38468;48.114;-1.684;2023-06-22T00:44:37;20.50;71.50
52575;DHT22;38468;48.114;-1.684;2023-06-22T00:46:37;20.50;71.40
52575;DHT22;38468;48.114;-1.684;2023-06-22T00:48:38;20.50;71.50
52575;DHT22;38468;48.114;-1.684;2023-06-22T00:50:40;20.50;71.80
52575;DHT22;38468;48.114;-1.684;2023-06-22T00:52:41;20.50;71.80
52575;DHT22;38468;48.114;-1.684;2023-06-22T00:54:43;20.50;71.80
52575;DHT22;38468;48.114;-1.684;2023-06-22T00:56:45;20.50;71.90
52575;DHT22;38468;48.114;-1.684;2023-06-22T00:58:46;20.40;72.00
52575;DHT22;38468;48.114;-1.684;2023-06-22T01:00:47;20.50;72.00
52575;DHT22;38468;48.114;-1.684;2023-06-22T01:02:48;20.40;72.20
52575;DHT22;38468;48.114;-1.684;2023-06-22T01:04:52;20.40;72.10
52575;DHT22;38468;48.114;-1.684;2023-06-22T01:09:19;20.40;72.30
52575;DHT22;38468;48.114;-1.684;2023-06-22T01:11:45;20.30;72.20
52575;DHT22;38468;48.114;-1.684;2023-06-22T01:14:34;20.40;72.30
52575;DHT22;38468;48.114;-1.684;2023-06-22T01:16:34;20.40;72.40
52575;DHT22;38468;48.114;-1.684;2023-06-22T01:18:36;20.30;72.40
52575;DHT22;38468;48.114;-1.684;2023-06-22T01:20:38;20.40;72.50
52575;DHT22;38468;48.114;-1.684;2023-06-22T01:23:02;20.30;72.60
52575;DHT22;38468;48.114;-1.684;2023-06-22T01:27:56;20.30;72.70
52575;DHT22;38468;48.114;-1.684;2023-06-22T01:30:02;20.30;72.60
52575;DHT22;38468;48.114;-1.684;2023-06-22T01:32:05;20.20;72.70
52575;DHT22;38468;48.114;-1.684;2023-06-22T01:34:08;20.30;72.70
52575;DHT22;38468;48.114;-1.684;2023-06-22T01:36:10;20.30;72.80
52575;DHT22;38468;48.114;-1.684;2023-06-22T01:38:12;20.30;72.80
52575;DHT22;38468;48.114;-1.684;2023-06-22T01:40:13;20.20;72.90
52575;DHT22;38468;48.114;-1.684;2023-06-22T01:42:15;20.20;73.00
52575;DHT22;38468;48.114;-1.684;2023-06-22T01:44:16;20.20;73.10
52575;DHT22;38468;48.114;-1.684;2023-06-22T01:46:18;20.20;73.10
52575;DHT22;38468;48.114;-1.684;2023-06-22T01:48:19;20.20;73.10
52575;DHT22;38468;48.114;-1.684;2023-06-22T01:50:21;20.20;73.20
52575;DHT22;38468;48.114;-1.684;2023-06-22T01:52:22;20.20;73.10
52575;DHT22;38468;48.114;-1.684;2023-06-22T01:54:22;20.20;73.00
52575;DHT22;38468;48.114;-1.684;2023-06-22T01:56:23;20.20;73.20
52575;DHT22;38468;48.114;-1.684;2023-06-22T01:58:27;20.10;73.10
52575;DHT22;38468;48.114;-1.684;2023-06-22T02:00:32;20.10;73.20
52575;DHT22;38468;48.114;-1.684;2023-06-22T02:03:03;20.20;73.20
52575;DHT22;38468;48.114;-1.684;2023-06-22T02:05:15;20.10;73.20
52575;DHT22;38468;48.114;-1.684;2023-06-22T02:07:18;20.10;73.20
52575;DHT22;38468;48.114;-1.684;2023-06-22T02:09:20;20.10;73.10
52575;DHT22;38468;48.114;-1.684;2023-06-22T02:11:21;20.10;73.00
52575;DHT22;38468;48.114;-1.684;2023-06-22T02:13:24;20.10;73.10
52575;DHT22;38468;48.114;-1.684;2023-06-22T02:15:25;20.10;73.00
52575;DHT22;38468;48.114;-1.684;2023-06-22T02:17:26;20.10;73.00
52575;DHT22;38468;48.114;-1.684;2023-06-22T02:19:28;20.10;73.00
52575;DHT22;38468;48.114;-1.684;2023-06-22T02:21:34;20.10;72.80
52575;DHT22;38468;48.114;-1.684;2023-06-22T02:23:34;20.10;72.70
52575;DHT22;38468;48.114;-1.684;2023-06-22T02:25:35;20.10;72.80
52575;DHT22;38468;48.114;-1.684;2023-06-22T02:27:36;20.00;72.60
52575;DHT22;38468;48.114;-1.684;2023-06-22T02:29:40;20.00;72.70
52575;DHT22;38468;48.114;-1.684;2023-06-22T02:31:41;20.00;72.60
52575;DHT22;38468;48.114;-1.684;2023-06-22T02:33:41;20.00;72.60
52575;DHT22;38468;48.114;-1.684;2023-06-22T02:35:42;20.00;72.50
52575;DHT22;38468;48.114;-1.684;2023-06-22T02:37:46;20.00;72.50
52575;DHT22;38468;48.114;-1.684;2023-06-22T02:39:47;20.00;72.60
52575;DHT22;38468;48.114;-1.684;2023-06-22T02:41:51;20.00;72.60
52575;DHT22;38468;48.114;-1.684;2023-06-22T02:43:52;20.00;72.50
52575;DHT22;38468;48.114;-1.684;2023-06-22T02:45:53;20.00;72.40
52575;DHT22;38468;48.114;-1.684;2023-06-22T02:47:54;20.00;72.40
52575;DHT22;38468;48.114;-1.684;2023-06-22T02:49:55;20.00;72.40
52575;DHT22;38468;48.114;-1.684;2023-06-22T02:51:57;20.00;72.40
52575;DHT22;38468;48.114;-1.684;2023-06-22T02:53:57;20.00;72.40
52575;DHT22;38468;48.114;-1.684;2023-06-22T02:55:58;20.00;72.40
52575;DHT22;38468;48.114;-1.684;2023-06-22T02:57:58;20.00;72.30
52575;DHT22;38468;48.114;-1.684;2023-06-22T03:00:02;20.00;72.40
52575;DHT22;38468;48.114;-1.684;2023-06-22T03:02:03;20.00;72.40
52575;DHT22;38468;48.114;-1.684;2023-06-22T03:04:04;20.00;72.30
52575;DHT22;38468;48.114;-1.684;2023-06-22T03:06:05;20.00;72.30
52575;DHT22;38468;48.114;-1.684;2023-06-22T03:08:06;20.00;72.20
52575;DHT22;38468;48.114;-1.684;2023-06-22T03:10:11;20.00;72.30
52575;DHT22;38468;48.114;-1.684;2023-06-22T03:12:12;20.00;72.50
52575;DHT22;38468;48.114;-1.684;2023-06-22T03:14:12;20.00;72.50
52575;DHT22;38468;48.114;-1.684;2023-06-22T03:16:13;20.00;72.50
52575;DHT22;38468;48.114;-1.684;2023-06-22T03:18:13;20.00;72.70
52575;DHT22;38468;48.114;-1.684;2023-06-22T03:20:16;20.00;72.70
52575;DHT22;38468;48.114;-1.684;2023-06-22T03:22:16;19.90;72.80
52575;DHT22;38468;48.114;-1.684;2023-06-22T03:24:17;20.00;72.80
52575;DHT22;38468;48.114;-1.684;2023-06-22T03:26:18;20.00;72.80
52575;DHT22;38468;48.114;-1.684;2023-06-22T03:28:19;19.90;72.90
52575;DHT22;38468;48.114;-1.684;2023-06-22T03:30:19;19.90;73.00
52575;DHT22;38468;48.114;-1.684;2023-06-22T03:32:20;19.90;73.10
52575;DHT22;38468;48.114;-1.684;2023-06-22T03:34:21;19.90;73.20
52575;DHT22;38468;48.114;-1.684;2023-06-22T03:36:22;19.90;73.20
52575;DHT22;38468;48.114;-1.684;2023-06-22T03:38:23;19.80;73.20
52575;DHT22;38468;48.114;-1.684;2023-06-22T03:40:23;19.80;73.20
52575;DHT22;38468;48.114;-1.684;2023-06-22T03:42:25;19.90;73.30
52575;DHT22;38468;48.114;-1.684;2023-06-22T03:44:26;19.90;73.20
52575;DHT22;38468;48.114;-1.684;2023-06-22T03:46:26;19.80;73.20
52575;DHT22;38468;48.114;-1.684;2023-06-22T03:48:28;19.80;73.20
52575;DHT22;38468;48.114;-1.684;2023-06-22T03:50:28;19.80;73.30
52575;DHT22;38468;48.114;-1.684;2023-06-22T03:52:30;19.80;73.20
52575;DHT22;38468;48.114;-1.684;2023-06-22T03:54:31;19.70;73.30
52575;DHT22;38468;48.114;-1.684;2023-06-22T03:56:31;19.70;73.30
52575;DHT22;38468;48.114;-1.684;2023-06-22T03:58:32;19.70;73.30
52575;DHT22;38468;48.114;-1.684;2023-06-22T04:00:33;19.70;73.50
52575;DHT22;38468;48.114;-1.684;2023-06-22T04:02:34;19.70;73.40
52575;DHT22;38468;48.114;-1.684;2023-06-22T04:04:35;19.70;73.30
52575;DHT22;38468;48.114;-1.684;2023-06-22T04:06:35;19.60;73.30
52575;DHT22;38468;48.114;-1.684;2023-06-22T04:08:36;19.70;73.40
52575;DHT22;38468;48.114;-1.684;2023-06-22T04:10:37;19.60;73.30
52575;DHT22;38468;48.114;-1.684;2023-06-22T04:12:37;19.60;73.40
52575;DHT22;38468;48.114;-1.684;2023-06-22T04:14:38;19.60;73.40
52575;DHT22;38468;48.114;-1.684;2023-06-22T04:16:38;19.60;73.50
52575;DHT22;38468;48.114;-1.684;2023-06-22T04:18:39;19.60;73.60
52575;DHT22;38468;48.114;-1.684;2023-06-22T04:20:40;19.60;73.60
52575;DHT22;38468;48.114;-1.684;2023-06-22T04:22:40;19.60;73.60
52575;DHT22;38468;48.114;-1.684;2023-06-22T04:24:41;19.60;73.50
52575;DHT22;38468;48.114;-1.684;2023-06-22T04:26:41;19.50;73.60
52575;DHT22;38468;48.114;-1.684;2023-06-22T04:28:42;19.50;73.60
52575;DHT22;38468;48.114;-1.684;2023-06-22T04:30:43;19.50;73.60
52575;DHT22;38468;48.114;-1.684;2023-06-22T04:32:46;19.50;73.60
52575;DHT22;38468;48.114;-1.684;2023-06-22T04:34:56;19.50;73.70
52575;DHT22;38468;48.114;-1.684;2023-06-22T04:36:57;19.50;73.60
52575;DHT22;38468;48.114;-1.684;2023-06-22T04:38:58;19.60;73.50
52575;DHT22;38468;48.114;-1.684;2023-06-22T04:40:58;19.50;73.50
52575;DHT22;38468;48.114;-1.684;2023-06-22T04:43:01;19.50;73.50
52575;DHT22;38468;48.114;-1.684;2023-06-22T04:45:03;19.50;73.50
52575;DHT22;38468;48.114;-1.684;2023-06-22T04:47:04;19.50;73.40
52575;DHT22;38468;48.114;-1.684;2023-06-22T04:49:09;19.50;73.40
52575;DHT22;38468;48.114;-1.684;2023-06-22T04:51:10;19.50;73.40
52575;DHT22;38468;48.114;-1.684;2023-06-22T04:53:10;19.60;73.50
52575;DHT22;38468;48.114;-1.684;2023-06-22T04:55:13;19.60;73.40
52575;DHT22;38468;48.114;-1.684;2023-06-22T04:57:18;19.60;73.40
52575;DHT22;38468;48.114;-1.684;2023-06-22T04:59:19;19.50;73.30
52575;DHT22;38468;48.114;-1.684;2023-06-22T05:01:19;19.50;73.40
52575;DHT22;38468;48.114;-1.684;2023-06-22T05:03:24;19.50;73.50
52575;DHT22;38468;48.114;-1.684;2023-06-22T05:05:26;19.60;73.40
52575;DHT22;38468;48.114;-1.684;2023-06-22T05:07:26;19.50;73.40
52575;DHT22;38468;48.114;-1.684;2023-06-22T05:09:28;19.50;73.50
52575;DHT22;38468;48.114;-1.684;2023-06-22T05:11:28;19.50;73.40
52575;DHT22;38468;48.114;-1.684;2023-06-22T05:13:29;19.60;73.40
52575;DHT22;38468;48.114;-1.684;2023-06-22T05:15:30;19.50;73.40
52575;DHT22;38468;48.114;-1.684;2023-06-22T05:17:34;19.50;73.30
52575;DHT22;38468;48.114;-1.684;2023-06-22T05:19:34;19.60;73.40
52575;DHT22;38468;48.114;-1.684;2023-06-22T05:21:35;19.60;73.30
52575;DHT22;38468;48.114;-1.684;2023-06-22T05:23:36;19.60;73.30
52575;DHT22;38468;48.114;-1.684;2023-06-22T05:25:37;19.60;73.10
52575;DHT22;38468;48.114;-1.684;2023-06-22T05:27:38;19.60;73.10
52575;DHT22;38468;48.114;-1.684;2023-06-22T05:29:40;19.60;73.00
52575;DHT22;38468;48.114;-1.684;2023-06-22T05:31:41;19.70;73.00
52575;DHT22;38468;48.114;-1.684;2023-06-22T05:33:43;19.70;72.80
52575;DHT22;38468;48.114;-1.684;2023-06-22T05:35:44;19.70;72.50
52575;DHT22;38468;48.114;-1.684;2023-06-22T05:37:44;19.70;72.50
52575;DHT22;38468;48.114;-1.684;2023-06-22T05:39:45;19.70;72.30
52575;DHT22;38468;48.114;-1.684;2023-06-22T05:41:46;19.80;72.30
52575;DHT22;38468;48.114;-1.684;2023-06-22T05:43:47;19.70;72.30
52575;DHT22;38468;48.114;-1.684;2023-06-22T05:45:47;19.80;72.30
52575;DHT22;38468;48.114;-1.684;2023-06-22T05:47:48;19.80;72.20
52575;DHT22;38468;48.114;-1.684;2023-06-22T05:49:49;19.80;72.20
52575;DHT22;38468;48.114;-1.684;2023-06-22T05:51:49;19.90;72.30
52575;DHT22;38468;48.114;-1.684;2023-06-22T05:53:50;19.90;72.40
52575;DHT22;38468;48.114;-1.684;2023-06-22T05:55:51;19.90;72.40
52575;DHT22;38468;48.114;-1.684;2023-06-22T05:57:52;20.00;72.40
52575;DHT22;38468;48.114;-1.684;2023-06-22T05:59:52;20.00;72.40
52575;DHT22;38468;48.114;-1.684;2023-06-22T06:01:54;20.00;72.50
52575;DHT22;38468;48.114;-1.684;2023-06-22T06:03:54;20.00;72.50
52575;DHT22;38468;48.114;-1.684;2023-06-22T06:05:55;20.10;72.60
52575;DHT22;38468;48.114;-1.684;2023-06-22T06:07:56;20.10;72.50
52575;DHT22;38468;48.114;-1.684;2023-06-22T06:09:57;20.10;72.30
52575;DHT22;38468;48.114;-1.684;2023-06-22T06:11:57;20.10;72.10
52575;DHT22;38468;48.114;-1.684;2023-06-22T06:13:58;20.20;72.20
52575;DHT22;38468;48.114;-1.684;2023-06-22T06:15:59;20.20;71.90
52575;DHT22;38468;48.114;-1.684;2023-06-22T06:17:59;20.20;72.00
52575;DHT22;38468;48.114;-1.684;2023-06-22T06:20:00;20.20;72.00
52575;DHT22;38468;48.114;-1.684;2023-06-22T06:22:01;20.30;71.90
52575;DHT22;38468;48.114;-1.684;2023-06-22T06:24:02;20.30;71.60
52575;DHT22;38468;48.114;-1.684;2023-06-22T06:26:03;20.40;71.60
52575;DHT22;38468;48.114;-1.684;2023-06-22T06:28:07;20.50;71.70
52575;DHT22;38468;48.114;-1.684;2023-06-22T06:30:08;20.50;71.50
52575;DHT22;38468;48.114;-1.684;2023-06-22T06:32:09;20.50;71.20
52575;DHT22;38468;48.114;-1.684;2023-06-22T06:34:10;20.70;70.80
52575;DHT22;38468;48.114;-1.684;2023-06-22T06:36:10;20.80;70.50
52575;DHT22;38468;48.114;-1.684;2023-06-22T06:38:11;20.90;70.40
52575;DHT22;38468;48.114;-1.684;2023-06-22T06:40:13;21.00;69.60
52575;DHT22;38468;48.114;-1.684;2023-06-22T06:42:13;21.00;69.60
52575;DHT22;38468;48.114;-1.684;2023-06-22T06:44:14;21.10;69.40
52575;DHT22;38468;48.114;-1.684;2023-06-22T06:46:15;21.30;69.50
52575;DHT22;38468;48.114;-1.684;2023-06-22T06:48:15;21.50;68.70
52575;DHT22;38468;48.114;-1.684;2023-06-22T06:50:19;21.50;68.40
52575;DHT22;38468;48.114;-1.684;2023-06-22T06:52:19;21.50;68.20
52575;DHT22;38468;48.114;-1.684;2023-06-22T06:54:20;21.70;67.70
52575;DHT22;38468;48.114;-1.684;2023-06-22T06:56:21;21.70;67.40
52575;DHT22;38468;48.114;-1.684;2023-06-22T06:58:22;21.90;67.20
52575;DHT22;38468;48.114;-1.684;2023-06-22T07:00:23;22.00;67.20
52575;DHT22;38468;48.114;-1.684;2023-06-22T07:02:24;22.30;66.10
52575;DHT22;38468;48.114;-1.684;2023-06-22T07:04:26;22.50;65.30
52575;DHT22;38468;48.114;-1.684;2023-06-22T07:06:26;22.50;65.30
52575;DHT22;38468;48.114;-1.684;2023-06-22T07:08:30;22.50;64.60
52575;DHT22;38468;48.114;-1.684;2023-06-22T07:10:30;22.70;65.30
52575;DHT22;38468;48.114;-1.684;2023-06-22T07:12:31;22.80;64.40
52575;DHT22;38468;48.114;-1.684;2023-06-22T07:14:32;22.80;64.00
52575;DHT22;38468;48.114;-1.684;2023-06-22T07:16:33;22.80;64.10
52575;DHT22;38468;48.114;-1.684;2023-06-22T07:18:33;22.90;63.80
52575;DHT22;38468;48.114;-1.684;2023-06-22T07:20:34;23.00;63.50
52575;DHT22;38468;48.114;-1.684;2023-06-22T07:22:35;23.30;63.30
52575;DHT22;38468;48.114;-1.684;2023-06-22T07:24:35;23.70;62.50
52575;DHT22;38468;48.114;-1.684;2023-06-22T07:26:37;24.20;61.80
52575;DHT22;38468;48.114;-1.684;2023-06-22T07:28:38;24.80;60.30
52575;DHT22;38468;48.114;-1.684;2023-06-22T07:30:40;25.20;57.90
52575;DHT22;38468;48.114;-1.684;2023-06-22T07:32:41;25.80;57.80
52575;DHT22;38468;48.114;-1.684;2023-06-22T07:34:42;26.40;56.80
52575;DHT22;38468;48.114;-1.684;2023-06-22T07:36:44;26.70;54.70
52575;DHT22;38468;48.114;-1.684;2023-06-22T07:38:46;27.10;54.40
52575;DHT22;38468;48.114;-1.684;2023-06-22T07:40:47;27.00;53.20
52575;DHT22;38468;48.114;-1.684;2023-06-22T07:42:47;27.10;52.70
52575;DHT22;38468;48.114;-1.684;2023-06-22T07:44:53;27.00;52.50
52575;DHT22;38468;48.114;-1.684;2023-06-22T07:46:54;26.60;53.50
52575;DHT22;38468;48.114;-1.684;2023-06-22T07:48:56;26.40;53.70
52575;DHT22;38468;48.114;-1.684;2023-06-22T07:50:56;26.20;53.60
52575;DHT22;38468;48.114;-1.684;2023-06-22T07:52:57;26.00;54.30
52575;DHT22;38468;48.114;-1.684;2023-06-22T07:54:58;26.00;54.50
52575;DHT22;38468;48.114;-1.684;2023-06-22T07:56:58;26.30;54.00
52575;DHT22;38468;48.114;-1.684;2023-06-22T07:58:59;26.50;53.20
52575;DHT22;38468;48.114;-1.684;2023-06-22T08:01:01;26.90;52.50
52575;DHT22;38468;48.114;-1.684;2023-06-22T08:03:02;27.10;51.60
52575;DHT22;38468;48.114;-1.684;2023-06-22T08:05:05;27.10;51.40
52575;DHT22;38468;48.114;-1.684;2023-06-22T08:07:08;26.90;51.50
52575;DHT22;38468;48.114;-1.684;2023-06-22T08:09:10;27.00;52.20
52575;DHT22;38468;48.114;-1.684;2023-06-22T08:11:10;27.20;52.50
52575;DHT22;38468;48.114;-1.684;2023-06-22T08:13:11;27.90;51.10
52575;DHT22;38468;48.114;-1.684;2023-06-22T08:15:11;28.40;49.30
52575;DHT22;38468;48.114;-1.684;2023-06-22T08:17:12;28.70;48.40
52575;DHT22;38468;48.114;-1.684;2023-06-22T08:19:13;28.90;47.70
52575;DHT22;38468;48.114;-1.684;2023-06-22T08:21:14;29.30;47.20
52575;DHT22;38468;48.114;-1.684;2023-06-22T08:23:15;29.60;46.20
52575;DHT22;38468;48.114;-1.684;2023-06-22T08:25:15;30.00;45.70
52575;DHT22;38468;48.114;-1.684;2023-06-22T08:27:16;30.00;44.20
52575;DHT22;38468;48.114;-1.684;2023-06-22T08:29:18;29.80;45.70
52575;DHT22;38468;48.114;-1.684;2023-06-22T08:31:20;30.00;44.90
52575;DHT22;38468;48.114;-1.684;2023-06-22T08:33:21;30.00;43.30
52575;DHT22;38468;48.114;-1.684;2023-06-22T08:35:24;30.00;44.60
52575;DHT22;38468;48.114;-1.684;2023-06-22T08:37:24;30.10;43.90
52575;DHT22;38468;48.114;-1.684;2023-06-22T08:39:30;30.30;43.70
52575;DHT22;38468;48.114;-1.684;2023-06-22T08:41:31;30.50;43.20
52575;DHT22;38468;48.114;-1.684;2023-06-22T08:43:32;30.60;42.90
52575;DHT22;38468;48.114;-1.684;2023-06-22T08:45:32;31.00;41.50
52575;DHT22;38468;48.114;-1.684;2023-06-22T08:47:33;30.90;41.00
52575;DHT22;38468;48.114;-1.684;2023-06-22T08:49:34;31.00;41.10
52575;DHT22;38468;48.114;-1.684;2023-06-22T08:51:35;31.30;41.10
52575;DHT22;38468;48.114;-1.684;2023-06-22T08:53:35;31.20;39.90
52575;DHT22;38468;48.114;-1.684;2023-06-22T08:55:37;30.50;41.10
52575;DHT22;38468;48.114;-1.684;2023-06-22T08:57:37;30.10;42.10
52575;DHT22;38468;48.114;-1.684;2023-06-22T08:59:39;30.20;41.80
52575;DHT22;38468;48.114;-1.684;2023-06-22T09:01:40;30.20;41.80
52575;DHT22;38468;48.114;-1.684;2023-06-22T09:03:41;30.10;42.00
52575;DHT22;38468;48.114;-1.684;2023-06-22T09:05:42;29.70;42.70
52575;DHT22;38468;48.114;-1.684;2023-06-22T09:07:43;29.40;43.80
52575;DHT22;38468;48.114;-1.684;2023-06-22T09:09:43;29.40;44.40
52575;DHT22;38468;48.114;-1.684;2023-06-22T09:11:44;29.50;43.40
52575;DHT22;38468;48.114;-1.684;2023-06-22T09:13:45;29.40;42.80
52575;DHT22;38468;48.114;-1.684;2023-06-22T09:15:46;29.30;43.20
52575;DHT22;38468;48.114;-1.684;2023-06-22T09:17:48;29.10;43.10
52575;DHT22;38468;48.114;-1.684;2023-06-22T09:19:49;29.00;44.00
52575;DHT22;38468;48.114;-1.684;2023-06-22T09:21:50;28.90;44.20
52575;DHT22;38468;48.114;-1.684;2023-06-22T09:23:50;28.70;44.30
52575;DHT22;38468;48.114;-1.684;2023-06-22T09:25:51;28.40;44.80
52575;DHT22;38468;48.114;-1.684;2023-06-22T09:27:52;28.30;44.90
52575;DHT22;38468;48.114;-1.684;2023-06-22T09:29:53;28.00;45.50
52575;DHT22;38468;48.114;-1.684;2023-06-22T09:31:53;27.70;46.00
52575;DHT22;38468;48.114;-1.684;2023-06-22T09:33:55;27.60;46.70
52575;DHT22;38468;48.114;-1.684;2023-06-22T09:35:55;27.60;46.30
52575;DHT22;38468;48.114;-1.684;2023-06-22T09:37:56;27.50;45.70
52575;DHT22;38468;48.114;-1.684;2023-06-22T09:39:57;27.60;45.80
52575;DHT22;38468;48.114;-1.684;2023-06-22T09:42:00;27.60;46.30
52575;DHT22;38468;48.114;-1.684;2023-06-22T09:44:01;27.50;46.80
52575;DHT22;38468;48.114;-1.684;2023-06-22T09:46:02;27.60;46.70
52575;DHT22;38468;48.114;-1.684;2023-06-22T09:48:03;27.50;47.00
52575;DHT22;38468;48.114;-1.684;2023-06-22T09:50:04;27.60;47.30
52575;DHT22;38468;48.114;-1.684;2023-06-22T09:52:06;27.60;47.30
52575;DHT22;38468;48.114;-1.684;2023-06-22T09:54:06;27.50;47.40
52575;DHT22;38468;48.114;-1.684;2023-06-22T09:56:07;27.50;47.50
52575;DHT22;38468;48.114;-1.684;2023-06-22T09:58:11;27.30;47.90
52575;DHT22;38468;48.114;-1.684;2023-06-22T10:00:12;27.40;47.40
52575;DHT22;38468;48.114;-1.684;2023-06-22T10:02:14;27.20;47.30
52575;DHT22;38468;48.114;-1.684;2023-06-22T10:04:14;27.20;47.20
52575;DHT22;38468;48.114;-1.684;2023-06-22T10:06:15;27.20;47.40
52575;DHT22;38468;48.114;-1.684;2023-06-22T10:08:15;27.20;47.60
52575;DHT22;38468;48.114;-1.684;2023-06-22T10:10:16;27.20;47.70
52575;DHT22;38468;48.114;-1.684;2023-06-22T10:12:17;27.20;47.80
52575;DHT22;38468;48.114;-1.684;2023-06-22T10:14:17;27.10;47.60
52575;DHT22;38468;48.114;-1.684;2023-06-22T10:16:18;27.00;48.40
52575;DHT22;38468;48.114;-1.684;2023-06-22T10:18:19;27.10;48.00
52575;DHT22;38468;48.114;-1.684;2023-06-22T10:20:20;27.10;48.50
52575;DHT22;38468;48.114;-1.684;2023-06-22T10:22:22;27.00;48.40
52575;DHT22;38468;48.114;-1.684;2023-06-22T10:24:23;27.00;48.40
52575;DHT22;38468;48.114;-1.684;2023-06-22T10:26:23;27.00;48.40
52575;DHT22;38468;48.114;-1.684;2023-06-22T10:28:24;27.20;48.70
52575;DHT22;38468;48.114;-1.684;2023-06-22T10:30:24;27.30;48.30
52575;DHT22;38468;48.114;-1.684;2023-06-22T10:32:25;27.10;47.40
52575;DHT22;38468;48.114;-1.684;2023-06-22T10:34:26;27.00;47.80
52575;DHT22;38468;48.114;-1.684;2023-06-22T10:36:26;27.00;48.10
52575;DHT22;38468;48.114;-1.684;2023-06-22T10:38:27;27.20;48.20
52575;DHT22;38468;48.114;-1.684;2023-06-22T10:40:28;27.20;47.70
52575;DHT22;38468;48.114;-1.684;2023-06-22T10:42:28;27.20;48.20
52575;DHT22;38468;48.114;-1.684;2023-06-22T10:44:29;27.00;48.10
52575;DHT22;38468;48.114;-1.684;2023-06-22T10:46:29;27.00;48.10
52575;DHT22;38468;48.114;-1.684;2023-06-22T10:48:30;27.00;48.80
52575;DHT22;38468;48.114;-1.684;2023-06-22T10:50:31;27.00;49.00
52575;DHT22;38468;48.114;-1.684;2023-06-22T10:52:31;27.00;48.40
52575;DHT22;38468;48.114;-1.684;2023-06-22T10:54:33;26.90;48.20
52575;DHT22;38468;48.114;-1.684;2023-06-22T10:56:34;27.00;48.60
52575;DHT22;38468;48.114;-1.684;2023-06-22T10:58:34;27.00;48.80
52575;DHT22;38468;48.114;-1.684;2023-06-22T11:00:35;27.00;48.00
52575;DHT22;38468;48.114;-1.684;2023-06-22T11:02:36;27.10;47.90
52575;DHT22;38468;48.114;-1.684;2023-06-22T11:04:36;27.00;48.00
52575;DHT22;38468;48.114;-1.684;2023-06-22T11:06:37;27.10;48.30
52575;DHT22;38468;48.114;-1.684;2023-06-22T11:08:37;27.10;47.90
52575;DHT22;38468;48.114;-1.684;2023-06-22T11:10:38;27.00;47.80
52575;DHT22;38468;48.114;-1.684;2023-06-22T11:12:39;27.00;48.00
52575;DHT22;38468;48.114;-1.684;2023-06-22T11:14:39;27.00;48.10
52575;DHT22;38468;48.114;-1.684;2023-06-22T11:16:40;27.10;48.20
52575;DHT22;38468;48.114;-1.684;2023-06-22T11:18:40;27.10;48.70
52575;DHT22;38468;48.114;-1.684;2023-06-22T11:20:42;27.10;48.30
52575;DHT22;38468;48.114;-1.684;2023-06-22T11:22:42;27.00;48.50
52575;DHT22;38468;48.114;-1.684;2023-06-22T11:24:43;27.00;48.90
52575;DHT22;38468;48.114;-1.684;2023-06-22T11:26:44;26.90;48.60
52575;DHT22;38468;48.114;-1.684;2023-06-22T11:28:44;26.90;48.40
52575;DHT22;38468;48.114;-1.684;2023-06-22T11:30:45;26.90;48.70
52575;DHT22;38468;48.114;-1.684;2023-06-22T11:32:46;27.00;48.70
52575;DHT22;38468;48.114;-1.684;2023-06-22T11:34:46;27.00;49.00
52575;DHT22;38468;48.114;-1.684;2023-06-22T11:36:47;27.10;48.70
52575;DHT22;38468;48.114;-1.684;2023-06-22T11:38:48;27.10;48.70
52575;DHT22;38468;48.114;-1.684;2023-06-22T11:40:49;27.00;49.80
52575;DHT22;38468;48.114;-1.684;2023-06-22T11:42:49;27.10;47.50
52575;DHT22;38468;48.114;-1.684;2023-06-22T11:44:50;27.20;48.50
52575;DHT22;38468;48.114;-1.684;2023-06-22T11:46:51;27.10;48.10
52575;DHT22;38468;48.114;-1.684;2023-06-22T11:48:51;27.30;48.40
52575;DHT22;38468;48.114;-1.684;2023-06-22T11:50:52;27.30;48.20
52575;DHT22;38468;48.114;-1.684;2023-06-22T11:52:52;27.30;47.50
52575;DHT22;38468;48.114;-1.684;2023-06-22T11:54:53;27.20;48.00
52575;DHT22;38468;48.114;-1.684;2023-06-22T11:56:54;27.20;48.00
52575;DHT22;38468;48.114;-1.684;2023-06-22T11:58:54;27.20;47.90
52575;DHT22;38468;48.114;-1.684;2023-06-22T12:00:55;27.10;47.60
52575;DHT22;38468;48.114;-1.684;2023-06-22T12:02:55;27.10;47.90
52575;DHT22;38468;48.114;-1.684;2023-06-22T12:04:56;27.20;47.90
52575;DHT22;38468;48.114;-1.684;2023-06-22T12:06:58;27.30;48.10
52575;DHT22;38468;48.114;-1.684;2023-06-22T12:08:59;27.50;48.10
52575;DHT22;38468;48.114;-1.684;2023-06-22T12:11:00;27.50;48.00
52575;DHT22;38468;48.114;-1.684;2023-06-22T12:13:00;27.50;47.90
52575;DHT22;38468;48.114;-1.684;2023-06-22T12:15:01;27.30;48.00
52575;DHT22;38468;48.114;-1.684;2023-06-22T12:17:04;27.20;48.30
52575;DHT22;38468;48.114;-1.684;2023-06-22T12:19:04;27.00;48.70
52575;DHT22;38468;48.114;-1.684;2023-06-22T12:21:05;27.00;48.80
52575;DHT22;38468;48.114;-1.684;2023-06-22T12:23:06;26.80;49.90
52575;DHT22;38468;48.114;-1.684;2023-06-22T12:25:07;26.70;51.00
52575;DHT22;38468;48.114;-1.684;2023-06-22T12:27:08;26.70;51.20
52575;DHT22;38468;48.114;-1.684;2023-06-22T12:29:10;26.80;50.90
52575;DHT22;38468;48.114;-1.684;2023-06-22T12:31:10;26.90;50.70
52575;DHT22;38468;48.114;-1.684;2023-06-22T12:33:11;27.00;50.90
52575;DHT22;38468;48.114;-1.684;2023-06-22T12:35:12;27.00;51.40
52575;DHT22;38468;48.114;-1.684;2023-06-22T12:37:14;27.00;50.90
52575;DHT22;38468;48.114;-1.684;2023-06-22T12:39:14;27.00;51.20